LFPO/ORY METAR and TAF weather

Enter ICAO airport designator
Station Type Date Time Source
LFPO METAR 2020/04/06 16:00 UTC NOAA

LFPO 061600Z AUTO 19005KT 9000 OVC009 12/11 Q1024


Station Type Date Time Source
LFPO Decoded METAR 2020/04/06 16:00 UTC NOAA

Paris-Orly, France (LFPO) 48-44N 002-24E 96M
Apr 06, 2020 - 12:00 PM EDT / 2020.04.06 1600 UTC
Wind: from the S (190 degrees) at 6 MPH (5 KT):0
Visibility: 5 mile(s):0
Sky conditions: overcast
Temperature: 53 F (12 C)
Dew Point: 51 F (11 C)
Relative Humidity: 93%
Pressure (altimeter): 30.24 in. Hg (1024 hPa)
ob: LFPO 061600Z AUTO 19005KT 9000 OVC009 12/11 Q1024
cycle: 16

Station Type Date Time Source
LFPO TAF 2020/04/03 06:27 UTC NOAA

TAF LFPO 030500Z 0306/0412 CNL

Example: see airport list